Time;durP1;ratioP1;P1;durP2;ratioP2;P2;SDS_P1;SDS_P2;PMS_P1;PMS_P2;Temp;Humidity;BMP_temperature;BMP_pressure;BME280_temperature;BME280_humidity;BME280_pressure;Samples;Min_cycle;Max_cycle;Signal;HPM_P1;HPM_P2
2024/01/06 00:01:03;;;;;;;2.72;2.53;;;;;;;;;;5006428;28;92518;-81
2024/01/06 00:03:30;;;;;;;2.28;2.17;;;;;;;;;;5005675;28;97766;-81
2024/01/06 00:05:59;;;;;;;2.90;2.30;;;;;;;;;;5002184;28;93928;-81
2024/01/06 00:08:26;;;;;;;2.53;2.00;;;;;;;;;;5005025;28;92612;-81
2024/01/06 00:10:53;;;;;;;2.08;1.88;;;;;;;;;;5000732;28;92368;-81
2024/01/06 00:13:20;;;;;;;2.13;2.03;;;;;;;;;;5017944;28;92854;-81
2024/01/06 00:15:46;;;;;;;2.00;1.70;;;;;;;;;;5014387;28;92543;-81
2024/01/06 00:18:13;;;;;;;1.88;1.77;;;;;;;;;;4997934;28;92431;-81
2024/01/06 00:20:40;;;;;;;1.77;1.65;;;;;;;;;;5010866;28;92050;-81
2024/01/06 00:23:06;;;;;;;1.95;1.75;;;;;;;;;;5011678;28;92482;-81
2024/01/06 00:25:33;;;;;;;1.80;1.70;;;;;;;;;;4997814;28;92345;-81
2024/01/06 00:27:59;;;;;;;2.08;1.95;;;;;;;;;;5015097;28;94735;-81
2024/01/06 00:30:26;;;;;;;1.80;1.70;;;;;;;;;;5010673;28;92980;-81
2024/01/06 00:32:53;;;;;;;1.52;1.42;;;;;;;;;;4997371;28;92576;-81
2024/01/06 00:35:19;;;;;;;1.33;1.25;;;;;;;;;;5005729;28;92447;-81
2024/01/06 00:37:46;;;;;;;1.80;1.70;;;;;;;;;;5016301;28;92501;-81
2024/01/06 00:40:12;;;;;;;1.98;1.60;;;;;;;;;;4998408;28;92495;-81
2024/01/06 00:42:39;;;;;;;1.63;1.52;;;;;;;;;;5007508;28;95534;-81
2024/01/06 00:45:06;;;;;;;2.13;1.55;;;;;;;;;;5014216;28;92056;-81
2024/01/06 00:47:33;;;;;;;1.20;1.20;;;;;;;;;;4991173;28;94030;-81
2024/01/06 00:49:59;;;;;;;2.95;1.48;;;;;;;;;;5014785;28;92394;-81
2024/01/06 00:52:26;;;;;;;3.08;1.58;;;;;;;;;;5013200;28;94813;-81
2024/01/06 00:54:52;;;;;;;1.70;1.60;;;;;;;;;;5003439;28;94665;-81
2024/01/06 00:57:23;;;;;;;1.40;1.30;;;;;;;;;;5013265;28;92538;-81
2024/01/06 00:59:50;;;;;;;1.52;1.42;;;;;;;;;;5009184;28;92758;-81
2024/01/06 01:02:17;;;;;;;1.27;1.27;;;;;;;;;;4997465;28;94358;-81
2024/01/06 01:04:43;;;;;;;1.10;1.10;;;;;;;;;;5009185;28;92369;-81
2024/01/06 01:07:10;;;;;;;1.08;1.08;;;;;;;;;;5008808;28;95257;-81
2024/01/06 01:09:36;;;;;;;1.45;1.35;;;;;;;;;;4998922;28;91958;-81
2024/01/06 01:12:03;;;;;;;1.52;1.42;;;;;;;;;;5018220;28;92951;-81
2024/01/06 01:14:29;;;;;;;1.35;1.35;;;;;;;;;;4997581;28;94370;-81
2024/01/06 01:16:56;;;;;;;1.80;1.70;;;;;;;;;;5004459;28;94807;-81
2024/01/06 01:19:22;;;;;;;2.88;1.52;;;;;;;;;;5002073;28;95419;-81
2024/01/06 01:21:49;;;;;;;1.80;1.58;;;;;;;;;;5002561;28;92555;-81
2024/01/06 01:24:15;;;;;;;1.30;1.30;;;;;;;;;;4997428;28;92970;-81
2024/01/06 01:26:42;;;;;;;1.08;1.00;;;;;;;;;;5000014;28;92880;-81
2024/01/06 01:29:08;;;;;;;1.75;1.50;;;;;;;;;;5005179;28;92343;-81
2024/01/06 01:31:35;;;;;;;1.38;1.30;;;;;;;;;;4998002;28;92472;-81
2024/01/06 01:34:02;;;;;;;1.20;1.10;;;;;;;;;;5001294;28;92086;-81
2024/01/06 01:36:28;;;;;;;1.00;1.00;;;;;;;;;;4996685;28;92563;-81
2024/01/06 01:38:55;;;;;;;1.23;1.17;;;;;;;;;;5002596;28;92716;-81
2024/01/06 01:41:21;;;;;;;1.00;1.00;;;;;;;;;;5000937;28;94675;-81
2024/01/06 01:43:48;;;;;;;1.35;1.25;;;;;;;;;;5000480;28;92399;-81
2024/01/06 01:46:15;;;;;;;1.40;1.30;;;;;;;;;;5015623;28;92863;-81
2024/01/06 01:48:41;;;;;;;1.20;1.10;;;;;;;;;;5012678;28;94164;-81
2024/01/06 01:51:09;;;;;;;1.15;1.08;;;;;;;;;;5004594;28;94373;-81
2024/01/06 01:53:36;;;;;;;1.00;1.00;;;;;;;;;;4982961;28;92739;-81
2024/01/06 01:56:04;;;;;;;2.35;1.48;;;;;;;;;;5002945;28;93982;-81
2024/01/06 01:58:30;;;;;;;0.85;0.85;;;;;;;;;;5003419;28;92050;-81
2024/01/06 02:00:57;;;;;;;2.28;1.00;;;;;;;;;;4998750;28;92195;-81
2024/01/06 02:03:24;;;;;;;1.30;1.20;;;;;;;;;;5007906;28;94773;-81
2024/01/06 02:05:51;;;;;;;2.08;1.20;;;;;;;;;;4996235;28;94677;-81
2024/01/06 02:08:18;;;;;;;2.75;1.40;;;;;;;;;;5005023;28;93231;-81
2024/01/06 02:10:44;;;;;;;0.85;0.85;;;;;;;;;;4998422;28;92373;-81
2024/01/06 02:13:11;;;;;;;1.52;1.10;;;;;;;;;;5012271;28;93418;-81
2024/01/06 02:15:38;;;;;;;1.67;1.10;;;;;;;;;;4998375;28;92425;-81
2024/01/06 02:18:05;;;;;;;2.80;1.42;;;;;;;;;;4999277;28;93347;-81
2024/01/06 02:20:31;;;;;;;1.50;1.40;;;;;;;;;;5016080;28;92379;-81
2024/01/06 02:23:00;;;;;;;1.65;0.90;;;;;;;;;;4981258;28;94753;-81
2024/01/06 02:25:27;;;;;;;0.95;0.95;;;;;;;;;;4995879;28;92502;-81
2024/01/06 02:27:53;;;;;;;0.90;0.90;;;;;;;;;;5009136;28;93963;-81
2024/01/06 02:30:20;;;;;;;0.82;0.82;;;;;;;;;;5014667;28;94572;-81
2024/01/06 02:32:47;;;;;;;0.90;0.90;;;;;;;;;;5015773;28;97436;-81
2024/01/06 02:35:13;;;;;;;0.95;0.95;;;;;;;;;;5010059;28;92240;-81
2024/01/06 02:37:40;;;;;;;1.10;1.10;;;;;;;;;;5011128;28;92432;-81
2024/01/06 02:40:06;;;;;;;0.88;0.70;;;;;;;;;;5000179;28;92668;-81
2024/01/06 02:42:33;;;;;;;0.70;0.70;;;;;;;;;;5007266;28;94453;-81
2024/01/06 02:44:59;;;;;;;0.80;0.80;;;;;;;;;;4998194;28;93382;-81
2024/01/06 02:47:26;;;;;;;0.85;0.85;;;;;;;;;;5007199;28;91995;-81
2024/01/06 02:49:52;;;;;;;0.70;0.70;;;;;;;;;;5014445;28;97164;-81
2024/01/06 02:52:19;;;;;;;1.05;0.77;;;;;;;;;;4996765;28;93015;-81
2024/01/06 02:54:46;;;;;;;1.38;1.20;;;;;;;;;;4992758;28;96942;-81
2024/01/06 02:57:13;;;;;;;1.65;1.20;;;;;;;;;;5008287;28;92405;-81
2024/01/06 02:59:40;;;;;;;1.27;1.17;;;;;;;;;;4995220;28;92400;-81
2024/01/06 03:02:06;;;;;;;1.67;1.10;;;;;;;;;;5015949;28;93993;-81
2024/01/06 03:04:33;;;;;;;1.23;1.15;;;;;;;;;;5017182;28;92954;-81
2024/01/06 03:06:59;;;;;;;0.90;0.90;;;;;;;;;;4998618;28;94661;-81
2024/01/06 03:09:26;;;;;;;2.08;1.13;;;;;;;;;;5009541;28;92434;-81
2024/01/06 03:11:52;;;;;;;1.10;1.10;;;;;;;;;;5020320;28;91731;-81
2024/01/06 03:14:19;;;;;;;1.17;1.17;;;;;;;;;;5005471;28;94634;-81
2024/01/06 03:16:45;;;;;;;1.40;1.00;;;;;;;;;;5014781;28;92994;-81
2024/01/06 03:19:12;;;;;;;2.13;1.00;;;;;;;;;;5017067;28;94654;-81
2024/01/06 03:21:38;;;;;;;1.42;1.00;;;;;;;;;;5012638;28;92502;-81
2024/01/06 03:24:06;;;;;;;1.00;1.00;;;;;;;;;;5022045;28;92719;-81
2024/01/06 03:26:33;;;;;;;1.00;1.00;;;;;;;;;;5007286;28;93096;-82
2024/01/06 03:28:59;;;;;;;2.13;1.08;;;;;;;;;;5021746;28;92329;-81
2024/01/06 03:31:26;;;;;;;1.23;1.10;;;;;;;;;;5012713;28;93054;-81
2024/01/06 03:33:55;;;;;;;1.23;1.00;;;;;;;;;;5002562;28;92308;-81
2024/01/06 03:36:22;;;;;;;0.90;0.90;;;;;;;;;;5002226;28;92052;-81
2024/01/06 03:38:49;;;;;;;1.15;1.08;;;;;;;;;;5004526;28;93789;-81
2024/01/06 03:41:15;;;;;;;1.38;1.20;;;;;;;;;;5009899;28;94319;-81
2024/01/06 03:43:41;;;;;;;1.20;1.20;;;;;;;;;;5005521;28;94739;-81
2024/01/06 03:46:08;;;;;;;1.05;1.05;;;;;;;;;;5001602;28;92097;-81
2024/01/06 03:48:35;;;;;;;0.82;0.82;;;;;;;;;;5000011;28;94780;-81
2024/01/06 03:51:02;;;;;;;1.70;1.17;;;;;;;;;;5000998;28;92375;-81
2024/01/06 03:53:28;;;;;;;1.17;1.15;;;;;;;;;;4982943;28;95393;-81
2024/01/06 03:55:55;;;;;;;1.17;1.08;;;;;;;;;;5005578;28;92540;-81
2024/01/06 03:58:21;;;;;;;0.90;0.90;;;;;;;;;;5001871;28;92914;-81
2024/01/06 04:00:48;;;;;;;1.20;1.10;;;;;;;;;;5001676;28;91979;-81
2024/01/06 04:03:14;;;;;;;1.10;1.10;;;;;;;;;;5004432;28;92890;-81
2024/01/06 04:05:41;;;;;;;1.25;0.90;;;;;;;;;;5018088;28;92661;-81
2024/01/06 04:08:08;;;;;;;0.80;0.80;;;;;;;;;;4997221;28;94727;-81
2024/01/06 04:10:34;;;;;;;1.10;1.10;;;;;;;;;;5010349;28;93915;-81
2024/01/06 04:13:01;;;;;;;1.55;0.98;;;;;;;;;;5005618;28;94523;-81
2024/01/06 04:15:27;;;;;;;1.98;1.27;;;;;;;;;;5003976;28;92987;-81
2024/01/06 04:17:54;;;;;;;1.33;1.23;;;;;;;;;;5012853;28;94888;-81
2024/01/06 04:20:21;;;;;;;1.38;1.27;;;;;;;;;;5011629;28;92421;-81
2024/01/06 04:22:47;;;;;;;1.00;0.90;;;;;;;;;;5006488;28;92139;-81
2024/01/06 04:25:14;;;;;;;0.68;0.68;;;;;;;;;;5020972;28;92819;-81
2024/01/06 04:27:40;;;;;;;0.80;0.80;;;;;;;;;;5008501;28;92464;-81
2024/01/06 04:30:07;;;;;;;1.05;0.90;;;;;;;;;;4999050;28;92372;-81
2024/01/06 04:32:34;;;;;;;1.00;1.00;;;;;;;;;;5002732;28;94824;-81
2024/01/06 04:35:00;;;;;;;1.75;0.90;;;;;;;;;;4998989;28;93717;-81
2024/01/06 04:37:27;;;;;;;0.60;0.60;;;;;;;;;;5004593;28;92365;-81
2024/01/06 04:39:54;;;;;;;0.90;0.80;;;;;;;;;;5000806;28;93083;-81
2024/01/06 04:42:22;;;;;;;0.88;0.88;;;;;;;;;;5000200;28;92529;-81
2024/01/06 04:44:49;;;;;;;0.90;0.88;;;;;;;;;;5008554;28;92531;-81
2024/01/06 04:47:16;;;;;;;0.70;0.70;;;;;;;;;;5012327;28;95567;-81
2024/01/06 04:49:43;;;;;;;0.88;0.88;;;;;;;;;;5009054;28;92101;-81
2024/01/06 04:52:09;;;;;;;1.00;1.00;;;;;;;;;;5004235;28;94492;-81
2024/01/06 04:54:36;;;;;;;1.15;1.05;;;;;;;;;;5015855;28;92815;-81
2024/01/06 04:57:04;;;;;;;1.42;1.02;;;;;;;;;;5008570;28;94810;-81
2024/01/06 04:59:30;;;;;;;1.67;1.08;;;;;;;;;;5011163;28;93161;-81
2024/01/06 05:01:57;;;;;;;0.77;0.77;;;;;;;;;;5000990;28;92465;-81
2024/01/06 05:04:24;;;;;;;0.98;0.82;;;;;;;;;;5007559;28;95479;-81
2024/01/06 05:06:51;;;;;;;1.35;1.25;;;;;;;;;;5003478;28;93078;-81
2024/01/06 05:09:18;;;;;;;1.33;1.08;;;;;;;;;;5009671;28;94033;-81
2024/01/06 05:11:44;;;;;;;4.38;1.10;;;;;;;;;;5004396;28;92905;-81
2024/01/06 05:14:11;;;;;;;0.70;0.70;;;;;;;;;;5003336;28;91960;-81
2024/01/06 05:16:37;;;;;;;0.80;0.80;;;;;;;;;;4999579;28;92391;-81
2024/01/06 05:19:04;;;;;;;2.72;0.90;;;;;;;;;;5013746;28;92434;-81
2024/01/06 05:21:31;;;;;;;0.65;0.63;;;;;;;;;;5004370;28;94473;-81
2024/01/06 05:23:57;;;;;;;1.75;0.80;;;;;;;;;;5005609;28;96723;-81
2024/01/06 05:26:24;;;;;;;1.15;0.93;;;;;;;;;;4999084;28;92367;-81
2024/01/06 05:28:51;;;;;;;1.17;0.90;;;;;;;;;;4998619;28;92633;-81
2024/01/06 05:31:18;;;;;;;0.95;0.90;;;;;;;;;;5009407;28;92254;-81
2024/01/06 05:33:45;;;;;;;0.88;0.88;;;;;;;;;;4999042;28;92113;-81
2024/01/06 05:36:11;;;;;;;0.80;0.80;;;;;;;;;;5009019;28;95519;-81
2024/01/06 05:38:38;;;;;;;0.80;0.80;;;;;;;;;;4994383;28;94401;-81
2024/01/06 05:41:04;;;;;;;1.00;1.00;;;;;;;;;;4998014;28;93202;-81
2024/01/06 05:43:31;;;;;;;0.98;0.70;;;;;;;;;;5008813;28;92179;-81
2024/01/06 05:45:57;;;;;;;1.55;0.90;;;;;;;;;;5013751;28;94820;-81
2024/01/06 05:48:24;;;;;;;1.10;1.10;;;;;;;;;;5004601;28;92863;-81
2024/01/06 05:50:50;;;;;;;0.88;0.77;;;;;;;;;;5012036;28;92402;-81
2024/01/06 05:53:18;;;;;;;2.55;0.95;;;;;;;;;;5010749;28;93267;-81
2024/01/06 05:55:45;;;;;;;1.58;1.15;;;;;;;;;;5002925;28;94029;-81
2024/01/06 05:58:12;;;;;;;0.90;0.90;;;;;;;;;;5003252;28;93271;-81
2024/01/06 06:00:38;;;;;;;0.88;0.82;;;;;;;;;;5010839;28;93299;-81
2024/01/06 06:03:05;;;;;;;1.08;1.08;;;;;;;;;;4994120;28;94150;-81
2024/01/06 06:05:31;;;;;;;1.45;1.00;;;;;;;;;;5001480;28;92981;-81
2024/01/06 06:07:58;;;;;;;2.53;1.30;;;;;;;;;;5004521;28;92250;-81
2024/01/06 06:10:29;;;;;;;1.17;0.88;;;;;;;;;;5010188;28;95017;-81
2024/01/06 06:12:56;;;;;;;2.13;1.30;;;;;;;;;;4997900;28;92350;-81
2024/01/06 06:15:23;;;;;;;1.23;1.13;;;;;;;;;;4998772;28;91962;-81
2024/01/06 06:17:49;;;;;;;1.10;1.10;;;;;;;;;;4999341;28;92440;-80
2024/01/06 06:20:16;;;;;;;1.02;1.02;;;;;;;;;;5014036;28;92799;-81
2024/01/06 06:22:43;;;;;;;2.35;1.30;;;;;;;;;;5014815;28;92615;-81
2024/01/06 06:25:09;;;;;;;0.90;0.90;;;;;;;;;;5016147;28;92451;-81
2024/01/06 06:27:36;;;;;;;1.38;1.38;;;;;;;;;;5001933;28;93132;-81
2024/01/06 06:30:03;;;;;;;2.15;1.20;;;;;;;;;;5006114;28;92420;-81
2024/01/06 06:32:30;;;;;;;1.25;1.20;;;;;;;;;;5000505;28;92459;-81
2024/01/06 06:34:57;;;;;;;1.45;1.35;;;;;;;;;;5005445;28;94864;-81
2024/01/06 06:37:23;;;;;;;4.10;1.40;;;;;;;;;;5014423;28;93969;-81
2024/01/06 06:39:50;;;;;;;1.30;1.20;;;;;;;;;;4999315;28;92479;-81
2024/01/06 06:42:19;;;;;;;1.42;1.33;;;;;;;;;;5001289;28;94552;-81
2024/01/06 06:44:46;;;;;;;2.55;1.27;;;;;;;;;;5001785;28;92574;-81
2024/01/06 06:47:13;;;;;;;1.20;1.20;;;;;;;;;;4999677;28;92420;-81
2024/01/06 06:49:39;;;;;;;2.00;1.17;;;;;;;;;;5001716;28;93999;-81
2024/01/06 06:52:07;;;;;;;1.17;1.08;;;;;;;;;;5003972;28;92046;-81
2024/01/06 06:54:33;;;;;;;2.15;1.30;;;;;;;;;;5004048;28;92488;-81
2024/01/06 06:56:59;;;;;;;3.63;1.30;;;;;;;;;;4998765;28;94480;-81
2024/01/06 06:59:26;;;;;;;1.40;1.30;;;;;;;;;;4995379;28;94917;-81
2024/01/06 07:01:53;;;;;;;5.78;1.65;;;;;;;;;;5006645;28;93943;-81
2024/01/06 07:04:19;;;;;;;2.22;1.13;;;;;;;;;;5000840;28;92393;-81
2024/01/06 07:06:46;;;;;;;1.13;1.02;;;;;;;;;;4997208;28;92476;-81
2024/01/06 07:09:13;;;;;;;1.20;1.10;;;;;;;;;;4997382;28;92081;-81
2024/01/06 07:11:39;;;;;;;1.25;1.25;;;;;;;;;;4997503;28;92226;-81
2024/01/06 07:14:06;;;;;;;0.90;0.88;;;;;;;;;;5005897;28;93963;-81
2024/01/06 07:16:32;;;;;;;2.03;1.27;;;;;;;;;;5004066;28;92005;-81
2024/01/06 07:18:59;;;;;;;3.15;1.35;;;;;;;;;;5020649;28;92156;-81
2024/01/06 07:21:25;;;;;;;5.10;1.75;;;;;;;;;;5016563;28;95605;-81
2024/01/06 07:23:52;;;;;;;1.45;1.35;;;;;;;;;;5015562;28;94866;-81
2024/01/06 07:26:18;;;;;;;1.40;1.10;;;;;;;;;;4999260;28;92290;-81
2024/01/06 07:28:45;;;;;;;0.80;0.80;;;;;;;;;;4996954;28;93950;-81
2024/01/06 07:31:11;;;;;;;1.30;1.20;;;;;;;;;;4997870;28;92423;-81
2024/01/06 07:33:39;;;;;;;1.55;1.40;;;;;;;;;;5009584;28;94700;-81
2024/01/06 07:36:06;;;;;;;1.05;1.02;;;;;;;;;;5007823;28;92795;-81
2024/01/06 07:38:32;;;;;;;1.00;0.90;;;;;;;;;;5002226;28;94672;-81
2024/01/06 07:40:59;;;;;;;1.73;1.00;;;;;;;;;;5017103;28;93013;-81
2024/01/06 07:43:25;;;;;;;2.35;1.10;;;;;;;;;;5011535;28;92256;-81
2024/01/06 07:45:52;;;;;;;1.10;1.10;;;;;;;;;;5013723;28;92481;-81
2024/01/06 07:48:19;;;;;;;2.70;1.40;;;;;;;;;;5009321;28;94197;-81
2024/01/06 07:50:45;;;;;;;0.95;0.95;;;;;;;;;;5016081;28;92948;-81
2024/01/06 07:53:13;;;;;;;2.03;1.25;;;;;;;;;;5002932;28;92970;-81
2024/01/06 07:55:40;;;;;;;0.90;0.90;;;;;;;;;;5000939;28;92332;-81
2024/01/06 07:58:07;;;;;;;1.70;1.05;;;;;;;;;;5000731;28;93115;-81
2024/01/06 08:00:33;;;;;;;1.33;1.23;;;;;;;;;;5006667;28;92950;-81
2024/01/06 08:03:00;;;;;;;1.13;1.05;;;;;;;;;;5012450;28;92349;-81
2024/01/06 08:05:26;;;;;;;2.13;1.00;;;;;;;;;;5001346;28;95178;-81
2024/01/06 08:07:53;;;;;;;0.88;0.88;;;;;;;;;;5005161;28;92509;-81
2024/01/06 08:10:20;;;;;;;2.67;1.17;;;;;;;;;;5002988;28;92463;-81
2024/01/06 08:12:48;;;;;;;1.30;0.90;;;;;;;;;;5002552;28;95831;-81
2024/01/06 08:15:14;;;;;;;0.90;0.90;;;;;;;;;;5004768;28;96503;-81
2024/01/06 08:17:42;;;;;;;3.95;1.10;;;;;;;;;;5017077;28;93209;-81
2024/01/06 08:20:09;;;;;;;1.05;0.93;;;;;;;;;;5009990;28;94913;-81
2024/01/06 08:22:35;;;;;;;1.50;1.40;;;;;;;;;;5001766;28;92352;-81
2024/01/06 08:25:02;;;;;;;2.03;1.20;;;;;;;;;;5013741;28;94325;-81
2024/01/06 08:27:29;;;;;;;1.83;1.27;;;;;;;;;;4997397;28;94665;-81
2024/01/06 08:29:56;;;;;;;1.58;0.82;;;;;;;;;;5016281;28;92219;-81
2024/01/06 08:32:22;;;;;;;2.63;1.05;;;;;;;;;;5016392;28;92949;-81
2024/01/06 08:34:49;;;;;;;1.15;0.85;;;;;;;;;;5010476;28;93235;-81
2024/01/06 08:37:16;;;;;;;0.90;0.90;;;;;;;;;;5003168;28;94799;-83
2024/01/06 08:39:43;;;;;;;1.35;0.98;;;;;;;;;;5003129;28;93047;-81
2024/01/06 08:42:09;;;;;;;1.23;0.80;;;;;;;;;;5014039;28;92822;-81
2024/01/06 08:44:36;;;;;;;1.83;1.10;;;;;;;;;;5000976;28;93847;-81
2024/01/06 08:47:02;;;;;;;1.70;1.48;;;;;;;;;;5012317;28;92439;-81
2024/01/06 08:49:29;;;;;;;1.67;1.33;;;;;;;;;;5004800;28;93205;-80
2024/01/06 08:51:56;;;;;;;0.98;0.90;;;;;;;;;;5002011;28;92455;-81
2024/01/06 08:54:22;;;;;;;1.00;1.00;;;;;;;;;;4995260;28;92000;-80
2024/01/06 08:56:49;;;;;;;1.35;1.23;;;;;;;;;;5002516;28;94824;-80
2024/01/06 08:59:15;;;;;;;1.50;1.35;;;;;;;;;;5001126;28;92448;-80
2024/01/06 09:01:42;;;;;;;2.50;1.45;;;;;;;;;;4993527;28;94868;-81
2024/01/06 09:04:11;;;;;;;4.55;1.45;;;;;;;;;;4995737;28;92357;-81
2024/01/06 09:06:38;;;;;;;1.10;1.00;;;;;;;;;;4997859;28;94584;-80
2024/01/06 09:09:05;;;;;;;1.33;1.23;;;;;;;;;;4996965;28;93461;-80
2024/01/06 09:11:32;;;;;;;1.35;1.10;;;;;;;;;;4997555;28;92309;-81
2024/01/06 09:13:59;;;;;;;1.88;0.90;;;;;;;;;;5011045;28;92179;-81
2024/01/06 09:16:25;;;;;;;1.20;1.10;;;;;;;;;;4995640;28;92254;-80
2024/01/06 09:18:52;;;;;;;3.67;1.30;;;;;;;;;;4996321;28;92047;-80
2024/01/06 09:21:18;;;;;;;1.88;1.50;;;;;;;;;;5002298;28;92269;-81
2024/01/06 09:23:45;;;;;;;3.00;1.55;;;;;;;;;;5017779;28;92082;-80
2024/01/06 09:26:11;;;;;;;4.90;1.23;;;;;;;;;;5015679;28;95500;-80
2024/01/06 09:28:39;;;;;;;1.23;1.20;;;;;;;;;;4993624;28;96622;-80
2024/01/06 09:31:05;;;;;;;1.70;1.20;;;;;;;;;;4998265;28;92134;-81
2024/01/06 09:33:33;;;;;;;3.45;1.23;;;;;;;;;;4979048;28;95410;-81
2024/01/06 09:36:01;;;;;;;1.58;1.35;;;;;;;;;;4996811;28;92470;-80
2024/01/06 09:38:28;;;;;;;1.83;1.13;;;;;;;;;;4996042;28;92572;-81
2024/01/06 09:40:55;;;;;;;2.35;1.30;;;;;;;;;;4997853;28;92953;-81
2024/01/06 09:43:22;;;;;;;2.15;1.48;;;;;;;;;;5002210;28;92252;-81
2024/01/06 09:45:53;;;;;;;3.03;1.55;;;;;;;;;;4997957;28;93360;-81
2024/01/06 09:48:22;;;;;;;4.68;1.20;;;;;;;;;;5005057;28;92949;-81
2024/01/06 09:50:51;;;;;;;3.72;1.33;;;;;;;;;;5006897;28;95612;-81
2024/01/06 09:53:19;;;;;;;3.58;1.48;;;;;;;;;;4995726;28;94191;-81
2024/01/06 09:55:51;;;;;;;1.92;1.10;;;;;;;;;;4999683;28;92366;-81
2024/01/06 09:58:18;;;;;;;2.25;1.20;;;;;;;;;;5010250;28;94224;-81
2024/01/06 10:00:44;;;;;;;1.52;1.42;;;;;;;;;;5003142;28;94826;-81
2024/01/06 10:03:12;;;;;;;3.70;1.40;;;;;;;;;;5011921;28;93040;-81
2024/01/06 10:05:40;;;;;;;2.83;1.40;;;;;;;;;;4997024;28;92386;-81
2024/01/06 10:08:06;;;;;;;1.60;1.05;;;;;;;;;;5004017;28;92024;-81
2024/01/06 10:10:34;;;;;;;1.92;1.70;;;;;;;;;;4994799;28;92347;-81
2024/01/06 10:13:00;;;;;;;1.75;1.42;;;;;;;;;;5003778;28;92019;-81
2024/01/06 10:15:27;;;;;;;2.30;1.15;;;;;;;;;;4998407;28;94535;-81
2024/01/06 10:17:53;;;;;;;2.42;1.27;;;;;;;;;;5013715;28;93848;-81
2024/01/06 10:20:20;;;;;;;2.55;1.02;;;;;;;;;;5015115;28;92787;-81
2024/01/06 10:22:47;;;;;;;1.25;1.15;;;;;;;;;;5014809;28;94401;-81
2024/01/06 10:25:14;;;;;;;2.28;1.40;;;;;;;;;;5015971;28;92511;-81
2024/01/06 10:27:41;;;;;;;1.90;1.40;;;;;;;;;;5014481;28;92859;-81
2024/01/06 10:30:08;;;;;;;2.55;1.00;;;;;;;;;;5001017;28;94469;-81
2024/01/06 10:32:36;;;;;;;2.10;1.50;;;;;;;;;;5011978;28;92859;-81
2024/01/06 10:35:05;;;;;;;1.30;1.20;;;;;;;;;;5007458;28;94543;-81
2024/01/06 10:37:32;;;;;;;1.27;1.17;;;;;;;;;;5011027;28;92271;-81
2024/01/06 10:40:06;;;;;;;2.53;1.35;;;;;;;;;;5005307;28;94817;-81
2024/01/06 10:42:33;;;;;;;2.35;1.65;;;;;;;;;;5012172;28;92312;-81
2024/01/06 10:45:00;;;;;;;1.15;1.00;;;;;;;;;;4998174;28;92570;-81
2024/01/06 10:47:29;;;;;;;4.97;1.40;;;;;;;;;;5011546;28;92965;-81
2024/01/06 10:49:59;;;;;;;1.23;1.13;;;;;;;;;;4999066;28;94670;-81
2024/01/06 10:52:28;;;;;;;2.78;1.52;;;;;;;;;;5006216;28;92506;-82
2024/01/06 10:54:55;;;;;;;2.50;1.40;;;;;;;;;;5004435;28;92330;-82
2024/01/06 10:57:23;;;;;;;1.20;1.20;;;;;;;;;;5013168;28;92072;-81
2024/01/06 10:59:51;;;;;;;1.35;1.25;;;;;;;;;;4994783;28;94797;-82
2024/01/06 11:02:17;;;;;;;1.10;1.10;;;;;;;;;;5004819;28;94154;-81
2024/01/06 11:04:45;;;;;;;2.55;1.70;;;;;;;;;;5003752;28;95167;-81
2024/01/06 11:07:12;;;;;;;2.58;1.23;;;;;;;;;;5007309;28;94188;-81
2024/01/06 11:09:40;;;;;;;2.17;1.85;;;;;;;;;;4996082;28;92951;-81
2024/01/06 11:12:07;;;;;;;3.45;1.40;;;;;;;;;;4996745;28;92113;-82
2024/01/06 11:14:37;;;;;;;1.42;1.33;;;;;;;;;;4996258;28;92921;-82
2024/01/06 11:17:04;;;;;;;1.85;1.13;;;;;;;;;;5010044;28;96825;-81
2024/01/06 11:19:33;;;;;;;2.38;1.65;;;;;;;;;;5015246;28;92269;-82
2024/01/06 11:22:19;;;;;;;2.95;1.50;;;;;;;;;;5017012;28;92802;-82
2024/01/06 11:24:50;;;;;;;1.52;1.40;;;;;;;;;;5015630;28;95373;-81
2024/01/06 11:27:17;;;;;;;3.90;1.67;;;;;;;;;;5004796;28;92780;-81
2024/01/06 11:29:44;;;;;;;2.10;1.88;;;;;;;;;;5000802;28;95896;-81
2024/01/06 11:32:21;;;;;;;3.95;1.63;;;;;;;;;;5009541;28;92211;-82
2024/01/06 11:34:49;;;;;;;1.52;1.30;;;;;;;;;;5007318;28;96004;-81
2024/01/06 11:37:22;;;;;;;2.58;1.42;;;;;;;;;;4998423;28;94829;-81
2024/01/06 11:39:49;;;;;;;3.30;1.90;;;;;;;;;;5014871;28;95986;-81
2024/01/06 11:42:16;;;;;;;1.20;1.10;;;;;;;;;;5013862;28;93442;-82
2024/01/06 11:44:43;;;;;;;1.15;1.00;;;;;;;;;;4999538;28;92501;-81
2024/01/06 11:47:11;;;;;;;3.28;1.23;;;;;;;;;;4997728;28;94612;-81
2024/01/06 11:49:38;;;;;;;1.48;1.33;;;;;;;;;;5007892;28;92478;-81
2024/01/06 11:52:04;;;;;;;3.03;1.75;;;;;;;;;;5007761;28;94402;-81
2024/01/06 11:54:32;;;;;;;1.27;1.17;;;;;;;;;;4997175;28;95169;-81
2024/01/06 11:56:58;;;;;;;1.58;1.20;;;;;;;;;;5006868;28;92675;-81
2024/01/06 11:59:25;;;;;;;3.78;1.48;;;;;;;;;;5007296;28;95134;-81
2024/01/06 12:01:51;;;;;;;3.08;1.73;;;;;;;;;;5017364;28;92427;-82
2024/01/06 12:04:18;;;;;;;1.63;1.52;;;;;;;;;;4999412;28;92393;-82
2024/01/06 12:06:44;;;;;;;2.90;1.38;;;;;;;;;;4997822;28;93087;-81
2024/01/06 12:09:15;;;;;;;2.03;1.33;;;;;;;;;;5012491;28;92488;-82
2024/01/06 12:11:45;;;;;;;1.90;1.58;;;;;;;;;;5021294;28;92079;-82
2024/01/06 12:14:11;;;;;;;2.33;1.30;;;;;;;;;;5010035;28;92554;-82
2024/01/06 12:16:38;;;;;;;1.60;1.50;;;;;;;;;;4999560;28;92622;-81
2024/01/06 12:19:04;;;;;;;3.40;1.55;;;;;;;;;;4997823;28;94506;-82
2024/01/06 12:21:33;;;;;;;1.77;1.30;;;;;;;;;;5012758;28;95277;-81
2024/01/06 12:24:12;;;;;;;1.48;1.15;;;;;;;;;;5015864;28;93890;-82
2024/01/06 12:26:41;;;;;;;1.77;1.27;;;;;;;;;;5001019;28;92851;-81
2024/01/06 12:29:07;;;;;;;2.42;1.25;;;;;;;;;;5003258;28;92127;-81
2024/01/06 12:31:34;;;;;;;4.43;1.48;;;;;;;;;;5010265;28;92100;-82
2024/01/06 12:34:07;;;;;;;3.03;1.77;;;;;;;;;;5014955;28;92141;-82
2024/01/06 12:36:34;;;;;;;4.00;1.23;;;;;;;;;;5006292;28;91947;-81
2024/01/06 12:39:02;;;;;;;2.63;1.52;;;;;;;;;;5008344;28;92404;-82
2024/01/06 12:41:29;;;;;;;1.30;1.20;;;;;;;;;;5003884;28;92539;-82
2024/01/06 12:43:55;;;;;;;1.58;1.48;;;;;;;;;;4997057;28;96184;-80
2024/01/06 12:46:22;;;;;;;1.73;1.58;;;;;;;;;;5007398;28;92670;-81
2024/01/06 12:48:48;;;;;;;3.15;1.38;;;;;;;;;;5009704;28;93055;-81
2024/01/06 12:51:15;;;;;;;2.13;1.48;;;;;;;;;;4997798;28;92332;-81
2024/01/06 12:53:42;;;;;;;2.72;1.60;;;;;;;;;;5001328;28;92212;-81
2024/01/06 12:56:08;;;;;;;1.50;1.25;;;;;;;;;;5005768;28;92277;-81
2024/01/06 12:58:35;;;;;;;2.08;1.25;;;;;;;;;;5009141;28;92416;-81
2024/01/06 13:01:02;;;;;;;1.90;1.48;;;;;;;;;;4998551;28;92494;-80
2024/01/06 13:03:29;;;;;;;1.70;1.30;;;;;;;;;;5009978;28;92537;-77
2024/01/06 13:05:56;;;;;;;2.70;1.80;;;;;;;;;;5013443;28;93617;-80
2024/01/06 13:08:23;;;;;;;10.40;1.60;;;;;;;;;;5004300;27;94799;-79
2024/01/06 13:10:50;;;;;;;3.25;1.60;;;;;;;;;;5004126;28;92894;-75
2024/01/06 13:13:16;;;;;;;3.45;1.63;;;;;;;;;;4994464;28;92875;-75
2024/01/06 13:15:43;;;;;;;5.22;1.60;;;;;;;;;;4996121;28;93073;-80
2024/01/06 13:18:10;;;;;;;8.18;1.73;;;;;;;;;;4992978;28;96446;-77
2024/01/06 13:20:40;;;;;;;10.45;2.05;;;;;;;;;;4998494;28;93791;-79
2024/01/06 13:23:07;;;;;;;1.60;1.38;;;;;;;;;;4994738;28;93054;-82
2024/01/06 13:25:34;;;;;;;4.45;2.08;;;;;;;;;;4996874;28;92190;-79
2024/01/06 13:28:01;;;;;;;1.85;1.17;;;;;;;;;;4999600;28;92315;-78
2024/01/06 13:30:27;;;;;;;10.88;1.40;;;;;;;;;;4995169;28;92463;-77
2024/01/06 13:32:54;;;;;;;3.60;1.63;;;;;;;;;;5006672;28;94913;-80
2024/01/06 13:35:24;;;;;;;5.25;1.23;;;;;;;;;;5001259;28;93423;-80
2024/01/06 13:37:55;;;;;;;2.13;1.52;;;;;;;;;;5001381;28;92474;-78
2024/01/06 13:40:22;;;;;;;1.58;1.48;;;;;;;;;;5001275;28;93015;-79
2024/01/06 13:42:50;;;;;;;1.58;1.40;;;;;;;;;;5002560;28;92230;-80
2024/01/06 13:45:17;;;;;;;3.97;1.38;;;;;;;;;;5006722;28;92963;-80
2024/01/06 13:47:44;;;;;;;4.63;1.67;;;;;;;;;;4996396;28;92256;-80
2024/01/06 13:50:12;;;;;;;3.03;1.92;;;;;;;;;;4999591;28;91898;-79
2024/01/06 13:52:38;;;;;;;1.35;1.02;;;;;;;;;;4994936;28;92399;-79
2024/01/06 13:55:06;;;;;;;1.20;1.10;;;;;;;;;;5001848;28;92349;-79
2024/01/06 13:57:33;;;;;;;1.88;1.20;;;;;;;;;;5006175;28;94883;-80
2024/01/06 13:59:59;;;;;;;2.55;1.42;;;;;;;;;;5003845;28;94019;-80
2024/01/06 14:02:26;;;;;;;1.50;1.25;;;;;;;;;;5003547;28;93587;-80
2024/01/06 14:04:52;;;;;;;1.33;1.23;;;;;;;;;;5003254;28;92269;-80
2024/01/06 14:07:19;;;;;;;2.05;1.50;;;;;;;;;;5002532;28;92393;-78
2024/01/06 14:09:46;;;;;;;2.67;1.40;;;;;;;;;;5002511;28;93378;-80
2024/01/06 14:12:13;;;;;;;1.90;1.17;;;;;;;;;;5014001;28;92244;-79
2024/01/06 14:14:43;;;;;;;2.13;1.77;;;;;;;;;;4998373;28;92405;-78
2024/01/06 14:17:09;;;;;;;1.52;1.40;;;;;;;;;;5006990;28;95863;-78
2024/01/06 14:19:36;;;;;;;2.25;1.92;;;;;;;;;;4993925;28;94568;-80
2024/01/06 14:22:04;;;;;;;2.05;1.45;;;;;;;;;;5011410;28;94881;-79
2024/01/06 14:24:31;;;;;;;2.25;1.52;;;;;;;;;;5006448;28;92875;-78
2024/01/06 14:26:57;;;;;;;2.72;1.92;;;;;;;;;;4996626;28;93000;-78
2024/01/06 14:29:24;;;;;;;2.38;1.83;;;;;;;;;;4996347;28;93209;-79
2024/01/06 14:31:50;;;;;;;6.80;1.92;;;;;;;;;;4979083;28;95901;-80
2024/01/06 14:34:17;;;;;;;1.80;1.65;;;;;;;;;;4999762;28;93105;-78
2024/01/06 14:40:38;;;;;;;2.17;1.52;;;;;;;;;;5000656;28;91825;-78
2024/01/06 14:43:05;;;;;;;4.63;2.33;;;;;;;;;;4992847;28;95737;-79
2024/01/06 14:45:32;;;;;;;6.80;1.80;;;;;;;;;;4992126;28;94543;-79